sensor_id;sensor_type;location;lat;lon;timestamp;pressure;altitude;pressure_sealevel;temperature;humidity
77706;BME280;66874;45.274;5.880;2023-08-31T00:02:20;98662.00;;;14.31;66.50
77706;BME280;66874;45.274;5.880;2023-08-31T00:04:45;98664.50;;;14.34;66.48
77706;BME280;66874;45.274;5.880;2023-08-31T00:07:11;98664.50;;;14.34;66.55
77706;BME280;66874;45.274;5.880;2023-08-31T00:09:36;98663.63;;;14.33;66.65
77706;BME280;66874;45.274;5.880;2023-08-31T00:12:02;98666.25;;;14.33;66.94
77706;BME280;66874;45.274;5.880;2023-08-31T00:14:28;98664.63;;;14.31;66.96
77706;BME280;66874;45.274;5.880;2023-08-31T00:16:53;98664.75;;;14.28;67.12
77706;BME280;66874;45.274;5.880;2023-08-31T00:19:19;98672.63;;;14.28;67.30
77706;BME280;66874;45.274;5.880;2023-08-31T00:21:45;98656.94;;;14.26;67.34
77706;BME280;66874;45.274;5.880;2023-08-31T00:24:10;98666.63;;;14.24;67.40
77706;BME280;66874;45.274;5.880;2023-08-31T00:26:37;98668.34;;;14.25;67.48
77706;BME280;66874;45.274;5.880;2023-08-31T00:29:06;98668.53;;;14.21;67.51
77706;BME280;66874;45.274;5.880;2023-08-31T00:31:32;98673.91;;;14.17;67.69
77706;BME280;66874;45.274;5.880;2023-08-31T00:33:59;98675.75;;;14.15;67.53
77706;BME280;66874;45.274;5.880;2023-08-31T00:36:28;98675.75;;;14.15;67.88
77706;BME280;66874;45.274;5.880;2023-08-31T00:38:53;98678.44;;;14.14;67.97
77706;BME280;66874;45.274;5.880;2023-08-31T00:41:19;98685.56;;;14.12;67.84
77706;BME280;66874;45.274;5.880;2023-08-31T00:43:45;98679.44;;;14.11;67.84
77706;BME280;66874;45.274;5.880;2023-08-31T00:46:10;98684.81;;;14.08;67.81
77706;BME280;66874;45.274;5.880;2023-08-31T00:48:36;98702.31;;;14.09;67.91
77706;BME280;66874;45.274;5.880;2023-08-31T00:51:02;98697.00;;;14.11;67.71
77706;BME280;66874;45.274;5.880;2023-08-31T00:53:29;98704.00;;;14.10;67.80
77706;BME280;66874;45.274;5.880;2023-08-31T00:55:55;98701.56;;;14.06;67.83
77706;BME280;66874;45.274;5.880;2023-08-31T00:58:20;98703.44;;;14.02;68.03
77706;BME280;66874;45.274;5.880;2023-08-31T01:01:07;98700.03;;;14.00;68.18
77706;BME280;66874;45.274;5.880;2023-08-31T01:09:20;98692.84;;;13.82;69.03
77706;BME280;66874;45.274;5.880;2023-08-31T01:12:09;98693.88;;;13.78;69.19
77706;BME280;66874;45.274;5.880;2023-08-31T01:14:44;98703.66;;;13.74;69.38
77706;BME280;66874;45.274;5.880;2023-08-31T01:17:14;98699.38;;;13.72;69.29
77706;BME280;66874;45.274;5.880;2023-08-31T01:19:46;98702.06;;;13.70;69.55
77706;BME280;66874;45.274;5.880;2023-08-31T01:24:50;98699.44;;;13.70;69.38
77706;BME280;66874;45.274;5.880;2023-08-31T01:27:16;98703.84;;;13.70;69.25
77706;BME280;66874;45.274;5.880;2023-08-31T01:29:42;98704.81;;;13.67;69.47
77706;BME280;66874;45.274;5.880;2023-08-31T01:32:07;98700.47;;;13.66;69.56
77706;BME280;66874;45.274;5.880;2023-08-31T01:34:33;98702.34;;;13.62;69.69
77706;BME280;66874;45.274;5.880;2023-08-31T01:37:04;98703.38;;;13.58;69.64
77706;BME280;66874;45.274;5.880;2023-08-31T01:39:37;98695.59;;;13.55;69.90
77706;BME280;66874;45.274;5.880;2023-08-31T01:42:07;98697.38;;;13.55;69.83
77706;BME280;66874;45.274;5.880;2023-08-31T01:44:36;98700.06;;;13.53;69.87
77706;BME280;66874;45.274;5.880;2023-08-31T01:47:06;98700.94;;;13.54;69.92
77706;BME280;66874;45.274;5.880;2023-08-31T01:49:38;98701.72;;;13.56;69.89
77706;BME280;66874;45.274;5.880;2023-08-31T01:52:04;98702.75;;;13.52;70.00
77706;BME280;66874;45.274;5.880;2023-08-31T01:54:30;98699.31;;;13.50;70.10
77706;BME280;66874;45.274;5.880;2023-08-31T01:56:56;98701.97;;;13.50;69.99
77706;BME280;66874;45.274;5.880;2023-08-31T01:59:21;98696.81;;;13.47;70.19
77706;BME280;66874;45.274;5.880;2023-08-31T02:01:47;98702.16;;;13.43;70.16
77706;BME280;66874;45.274;5.880;2023-08-31T02:04:12;98701.53;;;13.37;70.39
77706;BME280;66874;45.274;5.880;2023-08-31T02:06:38;98702.56;;;13.33;70.46
77706;BME280;66874;45.274;5.880;2023-08-31T02:09:03;98699.19;;;13.29;70.73
77706;BME280;66874;45.274;5.880;2023-08-31T02:11:29;98704.56;;;13.26;70.67
77706;BME280;66874;45.274;5.880;2023-08-31T02:13:54;98693.25;;;13.24;70.82
77706;BME280;66874;45.274;5.880;2023-08-31T02:16:19;98686.34;;;13.20;70.59
77706;BME280;66874;45.274;5.880;2023-08-31T02:18:45;98689.09;;;13.17;70.95
77706;BME280;66874;45.274;5.880;2023-08-31T02:21:10;98696.97;;;13.17;70.95
77706;BME280;66874;45.274;5.880;2023-08-31T02:23:36;98697.03;;;13.15;70.87
77706;BME280;66874;45.274;5.880;2023-08-31T02:26:01;98692.84;;;13.10;71.05
77706;BME280;66874;45.274;5.880;2023-08-31T02:28:26;98693.81;;;13.07;71.02
77706;BME280;66874;45.274;5.880;2023-08-31T02:31:00;98684.19;;;13.06;70.98
77706;BME280;66874;45.274;5.880;2023-08-31T02:33:26;98682.59;;;13.02;70.90
77706;BME280;66874;45.274;5.880;2023-08-31T02:35:51;98685.28;;;13.01;70.92
77706;BME280;66874;45.274;5.880;2023-08-31T02:38:16;98676.56;;;13.00;70.78
77706;BME280;66874;45.274;5.880;2023-08-31T02:40:42;98681.84;;;12.99;70.63
77706;BME280;66874;45.274;5.880;2023-08-31T02:43:10;98683.72;;;12.95;70.67
77706;BME280;66874;45.274;5.880;2023-08-31T02:45:36;98679.44;;;12.92;70.70
77706;BME280;66874;45.274;5.880;2023-08-31T02:48:01;98687.50;;;12.88;70.75
77706;BME280;66874;45.274;5.880;2023-08-31T02:50:28;98684.22;;;12.81;71.12
77706;BME280;66874;45.274;5.880;2023-08-31T02:52:54;98679.88;;;12.80;71.01
77706;BME280;66874;45.274;5.880;2023-08-31T02:55:19;98683.38;;;12.79;71.18
77706;BME280;66874;45.274;5.880;2023-08-31T02:57:46;98686.09;;;12.78;71.13
77706;BME280;66874;45.274;5.880;2023-08-31T03:00:12;98686.28;;;12.71;71.18
77706;BME280;66874;45.274;5.880;2023-08-31T03:02:38;98690.91;;;12.65;71.56
77706;BME280;66874;45.274;5.880;2023-08-31T03:05:04;98687.56;;;12.60;71.86
77706;BME280;66874;45.274;5.880;2023-08-31T03:07:30;98689.41;;;12.56;71.84
77706;BME280;66874;45.274;5.880;2023-08-31T03:09:55;98687.63;;;12.58;71.90
77706;BME280;66874;45.274;5.880;2023-08-31T03:12:20;98688.53;;;12.57;72.15
77706;BME280;66874;45.274;5.880;2023-08-31T03:14:46;98688.53;;;12.57;72.06
77706;BME280;66874;45.274;5.880;2023-08-31T03:17:11;98692.03;;;12.56;71.98
77706;BME280;66874;45.274;5.880;2023-08-31T03:19:36;98704.41;;;12.53;72.13
77706;BME280;66874;45.274;5.880;2023-08-31T03:22:02;98700.53;;;12.38;72.16
77706;BME280;66874;45.274;5.880;2023-08-31T03:24:27;98698.78;;;12.37;72.18
77706;BME280;66874;45.274;5.880;2023-08-31T03:26:52;98704.88;;;12.39;72.15
77706;BME280;66874;45.274;5.880;2023-08-31T03:29:18;98711.72;;;12.43;72.09
77706;BME280;66874;45.274;5.880;2023-08-31T03:31:43;98721.31;;;12.44;71.89
77706;BME280;66874;45.274;5.880;2023-08-31T03:34:08;98717.75;;;12.46;72.06
77706;BME280;66874;45.274;5.880;2023-08-31T03:36:35;98723.94;;;12.44;71.94
77706;BME280;66874;45.274;5.880;2023-08-31T03:39:00;98720.50;;;12.42;72.02
77706;BME280;66874;45.274;5.880;2023-08-31T03:41:25;98727.56;;;12.40;72.14
77706;BME280;66874;45.274;5.880;2023-08-31T03:43:51;98731.19;;;12.36;72.29
77706;BME280;66874;45.274;5.880;2023-08-31T03:46:16;98736.53;;;12.33;72.33
77706;BME280;66874;45.274;5.880;2023-08-31T03:48:41;98739.16;;;12.33;72.35
77706;BME280;66874;45.274;5.880;2023-08-31T03:51:07;98737.53;;;12.29;72.43
77706;BME280;66874;45.274;5.880;2023-08-31T03:53:32;98746.38;;;12.26;72.55
77706;BME280;66874;45.274;5.880;2023-08-31T03:55:57;98747.31;;;12.24;72.55
77706;BME280;66874;45.274;5.880;2023-08-31T03:58:23;98746.47;;;12.23;72.78
77706;BME280;66874;45.274;5.880;2023-08-31T04:00:49;98749.94;;;12.24;72.64
77706;BME280;66874;45.274;5.880;2023-08-31T04:03:15;98753.56;;;12.19;72.70
77706;BME280;66874;45.274;5.880;2023-08-31T04:05:40;98748.41;;;12.16;72.85
77706;BME280;66874;45.274;5.880;2023-08-31T04:08:06;98745.78;;;12.16;72.85
77706;BME280;66874;45.274;5.880;2023-08-31T04:10:31;98739.69;;;12.16;72.85
77706;BME280;66874;45.274;5.880;2023-08-31T04:12:57;98742.25;;;12.17;72.86
77706;BME280;66874;45.274;5.880;2023-08-31T04:15:23;98749.22;;;12.18;72.99
77706;BME280;66874;45.274;5.880;2023-08-31T04:17:48;98751.13;;;12.13;73.01
77706;BME280;66874;45.274;5.880;2023-08-31T04:20:15;98755.56;;;12.11;73.22
77706;BME280;66874;45.274;5.880;2023-08-31T04:22:40;98758.19;;;12.11;73.01
77706;BME280;66874;45.274;5.880;2023-08-31T04:25:06;98771.31;;;12.10;72.96
77706;BME280;66874;45.274;5.880;2023-08-31T04:27:32;98763.50;;;12.08;73.28
77706;BME280;66874;45.274;5.880;2023-08-31T04:30:01;98767.13;;;12.04;73.39
77706;BME280;66874;45.274;5.880;2023-08-31T04:32:27;98784.63;;;12.04;73.33
77706;BME280;66874;45.274;5.880;2023-08-31T04:34:53;98787.19;;;12.05;73.28
77706;BME280;66874;45.274;5.880;2023-08-31T04:37:19;98781.94;;;12.05;73.36
77706;BME280;66874;45.274;5.880;2023-08-31T04:39:46;98785.50;;;12.04;73.37
77706;BME280;66874;45.274;5.880;2023-08-31T04:42:11;98787.13;;;12.07;73.39
77706;BME280;66874;45.274;5.880;2023-08-31T04:44:36;98793.22;;;12.09;73.23
77706;BME280;66874;45.274;5.880;2023-08-31T04:47:02;98798.41;;;12.10;73.34
77706;BME280;66874;45.274;5.880;2023-08-31T04:49:27;98798.44;;;12.09;73.46
77706;BME280;66874;45.274;5.880;2023-08-31T04:51:52;98804.69;;;12.05;73.68
77706;BME280;66874;45.274;5.880;2023-08-31T04:54:18;98804.84;;;12.00;73.81
77706;BME280;66874;45.274;5.880;2023-08-31T04:56:43;98809.22;;;12.00;74.00
77706;BME280;66874;45.274;5.880;2023-08-31T04:59:09;98810.97;;;11.99;74.01
77706;BME280;66874;45.274;5.880;2023-08-31T05:01:34;98806.72;;;11.95;73.91
77706;BME280;66874;45.274;5.880;2023-08-31T05:04:00;98806.06;;;11.87;74.00
77706;BME280;66874;45.274;5.880;2023-08-31T05:06:25;98807.09;;;11.81;74.26
77706;BME280;66874;45.274;5.880;2023-08-31T05:08:51;98808.88;;;11.79;74.37
77706;BME280;66874;45.274;5.880;2023-08-31T05:11:16;98811.50;;;11.79;74.26
77706;BME280;66874;45.274;5.880;2023-08-31T05:13:42;98815.09;;;11.77;74.48
77706;BME280;66874;45.274;5.880;2023-08-31T05:16:10;98819.47;;;11.76;74.70
77706;BME280;66874;45.274;5.880;2023-08-31T05:18:37;98827.34;;;11.74;74.59
77706;BME280;66874;45.274;5.880;2023-08-31T05:21:03;98822.97;;;11.75;74.75
77706;BME280;66874;45.274;5.880;2023-08-31T05:23:29;98823.03;;;11.73;74.59
77706;BME280;66874;45.274;5.880;2023-08-31T05:25:54;98830.88;;;11.73;74.67
77706;BME280;66874;45.274;5.880;2023-08-31T05:28:22;98831.78;;;11.72;74.64
77706;BME280;66874;45.274;5.880;2023-08-31T05:30:49;98832.66;;;11.73;74.85
77706;BME280;66874;45.274;5.880;2023-08-31T05:33:15;98835.22;;;11.74;74.93
77706;BME280;66874;45.274;5.880;2023-08-31T05:35:40;98830.81;;;11.77;74.68
77706;BME280;66874;45.274;5.880;2023-08-31T05:38:06;98830.75;;;11.78;74.56
77706;BME280;66874;45.274;5.880;2023-08-31T05:40:31;98837.81;;;11.76;74.76
77706;BME280;66874;45.274;5.880;2023-08-31T05:42:57;98847.53;;;11.72;74.84
77706;BME280;66874;45.274;5.880;2023-08-31T05:45:22;98851.97;;;11.69;74.79
77706;BME280;66874;45.274;5.880;2023-08-31T05:47:48;98852.06;;;11.66;74.99
77706;BME280;66874;45.274;5.880;2023-08-31T05:50:13;98848.59;;;11.65;75.27
77706;BME280;66874;45.274;5.880;2023-08-31T05:52:39;98856.38;;;11.68;75.06
77706;BME280;66874;45.274;5.880;2023-08-31T05:55:09;98857.88;;;11.76;75.33
77706;BME280;66874;45.274;5.880;2023-08-31T05:57:34;98866.44;;;11.82;75.05
77706;BME280;66874;45.274;5.880;2023-08-31T06:00:00;98862.94;;;11.85;75.12
77706;BME280;66874;45.274;5.880;2023-08-31T06:02:25;98865.38;;;11.91;74.98
77706;BME280;66874;45.274;5.880;2023-08-31T06:04:50;98873.94;;;11.97;74.91
77706;BME280;66874;45.274;5.880;2023-08-31T06:07:16;98881.63;;;12.04;74.87
77706;BME280;66874;45.274;5.880;2023-08-31T06:09:41;98878.81;;;12.10;74.83
77706;BME280;66874;45.274;5.880;2023-08-31T06:12:07;98875.97;;;12.17;74.57
77706;BME280;66874;45.274;5.880;2023-08-31T06:14:32;98874.06;;;12.24;74.57
77706;BME280;66874;45.274;5.880;2023-08-31T06:16:58;98879.00;;;12.33;74.55
77706;BME280;66874;45.274;5.880;2023-08-31T06:19:23;98882.31;;;12.41;74.52
77706;BME280;66874;45.274;5.880;2023-08-31T06:21:49;98880.31;;;12.50;74.58
77706;BME280;66874;45.274;5.880;2023-08-31T06:24:14;98873.91;;;12.58;74.40
77706;BME280;66874;45.274;5.880;2023-08-31T06:26:40;98865.75;;;12.67;74.45
77706;BME280;66874;45.274;5.880;2023-08-31T06:29:05;98872.38;;;12.79;74.59
77706;BME280;66874;45.274;5.880;2023-08-31T06:31:33;98870.28;;;12.90;74.35
77706;BME280;66874;45.274;5.880;2023-08-31T06:33:58;98876.97;;;13.01;74.36
77706;BME280;66874;45.274;5.880;2023-08-31T06:36:24;98879.13;;;13.14;74.56
77706;BME280;66874;45.274;5.880;2023-08-31T06:38:49;98874.38;;;13.27;74.32
77706;BME280;66874;45.274;5.880;2023-08-31T06:41:14;98881.09;;;13.36;74.21
77706;BME280;66874;45.274;5.880;2023-08-31T06:43:41;98886.19;;;13.40;74.13
77706;BME280;66874;45.274;5.880;2023-08-31T06:46:06;98886.91;;;13.46;73.97
77706;BME280;66874;45.274;5.880;2023-08-31T06:48:32;98884.97;;;13.51;73.98
77706;BME280;66874;45.274;5.880;2023-08-31T06:50:57;98883.91;;;13.56;74.08
77706;BME280;66874;45.274;5.880;2023-08-31T06:53:22;98886.41;;;13.61;74.21
77706;BME280;66874;45.274;5.880;2023-08-31T06:55:48;98889.72;;;13.66;73.92
77706;BME280;66874;45.274;5.880;2023-08-31T06:58:13;98889.63;;;13.69;73.84
77706;BME280;66874;45.274;5.880;2023-08-31T07:00:39;98887.69;;;13.74;73.65
77706;BME280;66874;45.274;5.880;2023-08-31T07:03:04;98890.97;;;13.81;73.67
77706;BME280;66874;45.274;5.880;2023-08-31T07:05:34;98887.25;;;13.86;73.29
77706;BME280;66874;45.274;5.880;2023-08-31T07:08:00;98878.41;;;13.89;73.08
77706;BME280;66874;45.274;5.880;2023-08-31T07:10:26;98873.78;;;13.96;72.83
77706;BME280;66874;45.274;5.880;2023-08-31T07:12:52;98878.78;;;14.03;73.06
77706;BME280;66874;45.274;5.880;2023-08-31T07:15:17;98886.38;;;14.11;72.82
77706;BME280;66874;45.274;5.880;2023-08-31T07:17:43;98879.09;;;14.17;72.77
77706;BME280;66874;45.274;5.880;2023-08-31T07:20:09;98883.22;;;14.25;72.58
77706;BME280;66874;45.274;5.880;2023-08-31T07:22:34;98878.50;;;14.34;72.32
77706;BME280;66874;45.274;5.880;2023-08-31T07:25:00;98886.09;;;14.42;72.17
77706;BME280;66874;45.274;5.880;2023-08-31T07:27:25;98879.47;;;14.55;72.21
77706;BME280;66874;45.274;5.880;2023-08-31T07:29:53;98887.09;;;14.63;71.55
77706;BME280;66874;45.274;5.880;2023-08-31T07:32:19;98884.22;;;14.69;71.35
77706;BME280;66874;45.274;5.880;2023-08-31T07:34:44;98876.03;;;14.77;70.72
77706;BME280;66874;45.274;5.880;2023-08-31T07:37:09;98868.59;;;14.86;70.32
77706;BME280;66874;45.274;5.880;2023-08-31T07:39:35;98865.63;;;14.96;69.83
77706;BME280;66874;45.274;5.880;2023-08-31T07:42:01;98866.16;;;15.04;69.60
77706;BME280;66874;45.274;5.880;2023-08-31T07:44:27;98870.94;;;15.16;69.41
77706;BME280;66874;45.274;5.880;2023-08-31T07:46:52;98877.97;;;15.37;69.54
77706;BME280;66874;45.274;5.880;2023-08-31T07:49:18;98880.25;;;15.67;68.92
77706;BME280;66874;45.274;5.880;2023-08-31T07:51:43;98882.31;;;16.20;68.20
77706;BME280;66874;45.274;5.880;2023-08-31T07:54:08;98893.03;;;18.00;65.29
77706;BME280;66874;45.274;5.880;2023-08-31T07:56:34;98883.28;;;20.33;60.83
77706;BME280;66874;45.274;5.880;2023-08-31T07:58:59;98888.41;;;22.13;56.73
77706;BME280;66874;45.274;5.880;2023-08-31T08:01:25;98886.72;;;21.99;54.78
77706;BME280;66874;45.274;5.880;2023-08-31T08:03:50;98889.19;;;20.67;55.87
77706;BME280;66874;45.274;5.880;2023-08-31T08:06:15;98887.97;;;19.71;57.88
77706;BME280;66874;45.274;5.880;2023-08-31T08:08:41;98891.59;;;18.92;59.32
77706;BME280;66874;45.274;5.880;2023-08-31T08:11:06;98894.44;;;18.56;60.30
77706;BME280;66874;45.274;5.880;2023-08-31T08:13:32;98897.19;;;18.21;61.03
77706;BME280;66874;45.274;5.880;2023-08-31T08:15:57;98898.41;;;17.98;61.19
77706;BME280;66874;45.274;5.880;2023-08-31T08:18:23;98900.13;;;17.82;61.62
77706;BME280;66874;45.274;5.880;2023-08-31T08:20:50;98900.47;;;17.76;61.57
77706;BME280;66874;45.274;5.880;2023-08-31T08:23:15;98896.72;;;17.80;62.08
77706;BME280;66874;45.274;5.880;2023-08-31T08:25:41;98890.78;;;17.92;61.93
77706;BME280;66874;45.274;5.880;2023-08-31T08:28:06;98895.34;;;18.06;61.96
77706;BME280;66874;45.274;5.880;2023-08-31T08:30:32;98894.13;;;17.96;61.64
77706;BME280;66874;45.274;5.880;2023-08-31T08:32:57;98879.56;;;17.87;61.49
77706;BME280;66874;45.274;5.880;2023-08-31T08:35:24;98879.75;;;17.84;61.50
77706;BME280;66874;45.274;5.880;2023-08-31T08:37:49;98876.00;;;17.88;61.58
77706;BME280;66874;45.274;5.880;2023-08-31T08:40:14;98869.69;;;17.91;61.21
77706;BME280;66874;45.274;5.880;2023-08-31T08:42:46;98874.09;;;18.08;61.34
77706;BME280;66874;45.274;5.880;2023-08-31T08:45:15;98879.00;;;18.15;61.07
77706;BME280;66874;45.274;5.880;2023-08-31T08:47:42;98879.88;;;18.32;61.10
77706;BME280;66874;45.274;5.880;2023-08-31T08:50:09;98882.66;;;18.46;60.63
77706;BME280;66874;45.274;5.880;2023-08-31T08:52:35;98875.41;;;18.65;60.37
77706;BME280;66874;45.274;5.880;2023-08-31T08:55:01;98879.63;;;18.85;59.50
77706;BME280;66874;45.274;5.880;2023-08-31T08:57:28;98881.31;;;19.02;59.16
77706;BME280;66874;45.274;5.880;2023-08-31T08:59:53;98878.56;;;19.19;58.67
77706;BME280;66874;45.274;5.880;2023-08-31T09:02:18;98884.97;;;19.31;58.47
77706;BME280;66874;45.274;5.880;2023-08-31T09:04:44;98886.38;;;19.52;58.12
77706;BME280;66874;45.274;5.880;2023-08-31T09:07:09;98898.75;;;19.68;57.92
77706;BME280;66874;45.274;5.880;2023-08-31T09:09:52;98892.75;;;19.80;57.84
77706;BME280;66874;45.274;5.880;2023-08-31T09:12:18;98898.47;;;20.03;57.69
77706;BME280;66874;45.274;5.880;2023-08-31T09:14:43;98889.28;;;20.22;57.22
77706;BME280;66874;45.274;5.880;2023-08-31T09:17:09;98894.31;;;20.13;56.28
77706;BME280;66874;45.274;5.880;2023-08-31T09:19:34;98891.38;;;20.03;56.44
77706;BME280;66874;45.274;5.880;2023-08-31T09:22:00;98896.56;;;20.05;55.85
77706;BME280;66874;45.274;5.880;2023-08-31T09:24:25;98895.53;;;20.07;55.70
77706;BME280;66874;45.274;5.880;2023-08-31T09:26:58;98897.81;;;20.28;55.63
77706;BME280;66874;45.274;5.880;2023-08-31T09:29:24;98903.59;;;20.48;55.70
77706;BME280;66874;45.274;5.880;2023-08-31T09:31:50;98910.88;;;20.61;54.92
77706;BME280;66874;45.274;5.880;2023-08-31T09:34:16;98910.66;;;20.64;54.79
77706;BME280;66874;45.274;5.880;2023-08-31T09:36:42;98904.75;;;20.73;54.57
77706;BME280;66874;45.274;5.880;2023-08-31T09:39:08;98908.16;;;20.75;54.52
77706;BME280;66874;45.274;5.880;2023-08-31T09:41:35;98912.06;;;20.84;54.25
77706;BME280;66874;45.274;5.880;2023-08-31T09:44:18;98901.59;;;20.95;53.86
77706;BME280;66874;45.274;5.880;2023-08-31T09:46:45;98895.91;;;21.14;54.06
77706;BME280;66874;45.274;5.880;2023-08-31T09:49:16;98890.75;;;21.52;53.69
77706;BME280;66874;45.274;5.880;2023-08-31T09:51:46;98888.28;;;21.89;53.02
77706;BME280;66874;45.274;5.880;2023-08-31T09:54:14;98883.28;;;22.10;52.72
77706;BME280;66874;45.274;5.880;2023-08-31T09:56:41;98882.34;;;22.36;52.09
77706;BME280;66874;45.274;5.880;2023-08-31T09:59:08;98882.97;;;22.65;51.76
77706;BME280;66874;45.274;5.880;2023-08-31T10:01:35;98877.78;;;22.88;51.39
77706;BME280;66874;45.274;5.880;2023-08-31T10:04:02;98869.47;;;22.93;49.92
77706;BME280;66874;45.274;5.880;2023-08-31T10:06:27;98866.50;;;22.84;49.50
77706;BME280;66874;45.274;5.880;2023-08-31T10:08:54;98865.75;;;22.95;49.41
77706;BME280;66874;45.274;5.880;2023-08-31T10:11:20;98850.81;;;22.93;49.17
77706;BME280;66874;45.274;5.880;2023-08-31T10:13:48;98850.44;;;23.21;49.39
77706;BME280;66874;45.274;5.880;2023-08-31T10:16:14;98836.75;;;23.50;49.09
77706;BME280;66874;45.274;5.880;2023-08-31T10:18:41;98829.72;;;23.84;48.82
77706;BME280;66874;45.274;5.880;2023-08-31T10:21:06;98834.50;;;24.14;48.32
77706;BME280;66874;45.274;5.880;2023-08-31T10:23:32;98832.44;;;24.40;47.73
77706;BME280;66874;45.274;5.880;2023-08-31T10:28:25;98823.53;;;24.62;46.92
77706;BME280;66874;45.274;5.880;2023-08-31T10:33:43;98821.25;;;25.01;46.56
77706;BME280;66874;45.274;5.880;2023-08-31T10:36:19;98814.81;;;25.36;45.92
77706;BME280;66874;45.274;5.880;2023-08-31T10:41:23;98806.34;;;25.93;45.03
77706;BME280;66874;45.274;5.880;2023-08-31T10:43:54;98811.06;;;26.01;43.74
77706;BME280;66874;45.274;5.880;2023-08-31T10:49:12;98806.19;;;25.85;42.22
77706;BME280;66874;45.274;5.880;2023-08-31T10:51:53;98801.59;;;25.97;42.78
77706;BME280;66874;45.274;5.880;2023-08-31T10:54:21;98804.00;;;26.40;42.41
77706;BME280;66874;45.274;5.880;2023-08-31T10:57:09;98805.38;;;26.56;41.70
77706;BME280;66874;45.274;5.880;2023-08-31T11:02:07;98793.56;;;26.68;41.62
77706;BME280;66874;45.274;5.880;2023-08-31T11:04:52;98794.72;;;26.94;41.08
77706;BME280;66874;45.274;5.880;2023-08-31T11:07:19;98797.81;;;26.90;40.44
77706;BME280;66874;45.274;5.880;2023-08-31T11:09:46;98791.94;;;26.56;40.85
77706;BME280;66874;45.274;5.880;2023-08-31T11:12:12;98797.97;;;26.98;40.90
77706;BME280;66874;45.274;5.880;2023-08-31T11:14:38;98800.53;;;27.09;39.75
77706;BME280;66874;45.274;5.880;2023-08-31T11:17:04;98803.59;;;26.75;39.53
77706;BME280;66874;45.274;5.880;2023-08-31T11:19:31;98805.25;;;26.67;40.30
77706;BME280;66874;45.274;5.880;2023-08-31T11:21:57;98797.09;;;26.78;40.09
77706;BME280;66874;45.274;5.880;2023-08-31T11:24:23;98792.78;;;27.35;40.13
77706;BME280;66874;45.274;5.880;2023-08-31T11:26:53;98797.72;;;28.16;39.23
77706;BME280;66874;45.274;5.880;2023-08-31T11:29:19;98801.44;;;28.52;37.68
77706;BME280;66874;45.274;5.880;2023-08-31T11:31:44;98794.41;;;28.59;37.15
77706;BME280;66874;45.274;5.880;2023-08-31T11:34:14;98797.53;;;28.37;37.75
77706;BME280;66874;45.274;5.880;2023-08-31T11:36:41;98793.50;;;28.51;37.42
77706;BME280;66874;45.274;5.880;2023-08-31T11:39:09;98795.94;;;28.34;37.12
77706;BME280;66874;45.274;5.880;2023-08-31T11:41:34;98793.44;;;28.23;36.94
77706;BME280;66874;45.274;5.880;2023-08-31T11:44:03;98795.22;;;28.69;38.37
77706;BME280;66874;45.274;5.880;2023-08-31T11:46:29;98785.50;;;29.40;37.51
77706;BME280;66874;45.274;5.880;2023-08-31T11:48:55;98794.59;;;30.09;36.85
77706;BME280;66874;45.274;5.880;2023-08-31T11:51:21;98784.38;;;30.55;35.54
77706;BME280;66874;45.274;5.880;2023-08-31T11:53:47;98779.09;;;30.79;34.84
77706;BME280;66874;45.274;5.880;2023-08-31T11:56:13;98789.22;;;30.43;34.60
77706;BME280;66874;45.274;5.880;2023-08-31T11:58:41;98788.91;;;30.46;34.61
77706;BME280;66874;45.274;5.880;2023-08-31T12:01:18;98777.22;;;30.37;34.16
77706;BME280;66874;45.274;5.880;2023-08-31T12:03:45;98777.91;;;30.13;34.05
77706;BME280;66874;45.274;5.880;2023-08-31T12:06:10;98778.47;;;30.59;34.70
77706;BME280;66874;45.274;5.880;2023-08-31T12:08:36;98773.56;;;31.13;33.34
77706;BME280;66874;45.274;5.880;2023-08-31T12:11:02;98766.97;;;31.73;33.27
77706;BME280;66874;45.274;5.880;2023-08-31T12:13:27;98767.41;;;32.18;32.41
77706;BME280;66874;45.274;5.880;2023-08-31T12:15:57;98765.00;;;32.23;31.83
77706;BME280;66874;45.274;5.880;2023-08-31T12:18:22;98772.75;;;32.42;32.06
77706;BME280;66874;45.274;5.880;2023-08-31T12:20:52;98763.22;;;32.54;31.91
77706;BME280;66874;45.274;5.880;2023-08-31T12:23:20;98764.63;;;32.73;31.57
77706;BME280;66874;45.274;5.880;2023-08-31T12:25:51;98769.38;;;32.32;30.58
77706;BME280;66874;45.274;5.880;2023-08-31T12:28:18;98765.72;;;32.08;30.76
77706;BME280;66874;45.274;5.880;2023-08-31T12:30:47;98759.88;;;31.89;30.57
77706;BME280;66874;45.274;5.880;2023-08-31T12:33:13;98763.94;;;32.32;30.70
77706;BME280;66874;45.274;5.880;2023-08-31T12:35:39;98761.31;;;32.86;30.42
77706;BME280;66874;45.274;5.880;2023-08-31T12:38:05;98763.97;;;33.02;29.74
77706;BME280;66874;45.274;5.880;2023-08-31T12:40:30;98755.75;;;33.34;29.92
77706;BME280;66874;45.274;5.880;2023-08-31T12:42:55;98754.47;;;33.67;29.83
77706;BME280;66874;45.274;5.880;2023-08-31T12:45:21;98756.34;;;33.96;29.62
77706;BME280;66874;45.274;5.880;2023-08-31T12:47:46;98764.03;;;33.93;29.18
77706;BME280;66874;45.274;5.880;2023-08-31T12:50:13;98754.88;;;33.79;29.34
77706;BME280;66874;45.274;5.880;2023-08-31T12:52:38;98752.56;;;33.53;28.54
77706;BME280;66874;45.274;5.880;2023-08-31T12:55:10;98758.34;;;33.50;28.51
77706;BME280;66874;45.274;5.880;2023-08-31T12:57:35;98758.16;;;33.28;28.81
77706;BME280;66874;45.274;5.880;2023-08-31T13:00:01;98760.38;;;33.86;28.33
77706;BME280;66874;45.274;5.880;2023-08-31T13:02:28;98754.84;;;33.94;27.23
77706;BME280;66874;45.274;5.880;2023-08-31T13:04:54;98750.03;;;34.19;27.43
77706;BME280;66874;45.274;5.880;2023-08-31T13:07:19;98747.53;;;34.68;27.46
77706;BME280;66874;45.274;5.880;2023-08-31T13:09:45;98746.03;;;34.66;26.19
77706;BME280;66874;45.274;5.880;2023-08-31T13:12:10;98755.81;;;34.31;26.36
77706;BME280;66874;45.274;5.880;2023-08-31T13:14:35;98752.53;;;34.50;26.58
77706;BME280;66874;45.274;5.880;2023-08-31T13:17:01;98739.91;;;34.79;25.99
77706;BME280;66874;45.274;5.880;2023-08-31T13:19:27;98730.56;;;35.24;25.95